Time;durP1;ratioP1;P1;durP2;ratioP2;P2;SDS_P1;SDS_P2;PMS_P1;PMS_P2;Temp;Humidity;BMP_temperature;BMP_pressure;BME280_temperature;BME280_humidity;BME280_pressure;Samples;Min_cycle;Max_cycle;Signal;HPM_P1;HPM_P2
2022/12/08 00:01:45;;;;;;;2.67;0.63;;;2.20;99.90;;;;;;5034493;28;20098;-51
2022/12/08 00:04:10;;;;;;;5.43;0.82;;;2.10;99.90;;;;;;5034614;28;20124;-53
2022/12/08 00:09:38;;;;;;;3.10;0.60;;;2.80;99.90;;;;;;5034433;28;20141;-50
2022/12/08 00:12:10;;;;;;;3.05;0.60;;;2.90;99.90;;;;;;5034652;28;20379;-51
2022/12/08 00:14:41;;;;;;;3.85;0.70;;;2.10;99.90;;;;;;5034272;28;20080;-50
2022/12/08 00:17:09;;;;;;;1.42;0.60;;;2.30;99.90;;;;;;5016699;28;20057;-48
2022/12/08 00:19:36;;;;;;;3.75;0.80;;;2.70;99.90;;;;;;5034528;28;20046;-50
2022/12/08 00:22:02;;;;;;;4.07;0.75;;;2.40;99.90;;;;;;5034625;28;20041;-50
2022/12/08 00:24:34;;;;;;;2.03;0.68;;;2.30;99.90;;;;;;5034539;28;20087;-51
2022/12/08 00:27:00;;;;;;;4.00;0.70;;;2.60;99.90;;;;;;5034059;28;20042;-53
2022/12/08 00:29:26;;;;;;;5.95;1.02;;;2.60;99.90;;;;;;5034208;28;20053;-51
2022/12/08 00:31:52;;;;;;;4.13;0.90;;;3.00;99.90;;;;;;5033876;28;20049;-52
2022/12/08 00:34:18;;;;;;;3.22;0.90;;;2.80;99.90;;;;;;5034010;28;20045;-54
2022/12/08 00:36:44;;;;;;;2.75;0.75;;;2.60;99.90;;;;;;5033371;28;20399;-53
2022/12/08 00:39:11;;;;;;;2.50;0.85;;;2.00;99.90;;;;;;5016170;28;20048;-54
2022/12/08 00:44:21;;;;;;;3.50;0.63;;;2.00;99.90;;;;;;5033780;28;20137;-51
2022/12/08 00:46:47;;;;;;;4.78;0.85;;;2.90;99.90;;;;;;5033389;28;20128;-51
2022/12/08 00:49:14;;;;;;;4.97;1.00;;;2.00;99.90;;;;;;5034003;28;20033;-50
2022/12/08 00:51:40;;;;;;;2.92;0.65;;;2.40;99.90;;;;;;5033545;28;20037;-52
2022/12/08 00:54:06;;;;;;;2.33;0.70;;;2.00;99.90;;;;;;5034013;28;20079;-50
2022/12/08 00:56:32;;;;;;;4.05;1.00;;;1.90;99.90;;;;;;5042998;28;20152;-50
2022/12/08 00:58:58;;;;;;;4.07;0.73;;;1.80;99.90;;;;;;5053760;28;20552;-54
2022/12/08 01:01:24;;;;;;;4.10;1.23;;;2.40;99.90;;;;;;5035654;28;20115;-54
2022/12/08 01:03:49;;;;;;;4.00;1.00;;;1.80;99.90;;;;;;5053671;28;20436;-52
2022/12/08 01:06:15;;;;;;;2.38;1.02;;;2.60;99.90;;;;;;5053533;28;20094;-54
2022/12/08 01:08:41;;;;;;;5.57;0.70;;;2.20;99.90;;;;;;5053125;28;20076;-50
2022/12/08 01:11:11;;;;;;;2.35;0.60;;;2.60;99.90;;;;;;5053227;28;20505;-54
2022/12/08 01:13:37;;;;;;;3.08;0.70;;;1.80;99.90;;;;;;5018940;28;20397;-52
2022/12/08 01:16:03;;;;;;;0.88;0.50;;;2.60;99.90;;;;;;5053019;28;20059;-52
2022/12/08 01:18:29;;;;;;;1.55;0.68;;;2.40;99.90;;;;;;5053344;28;20048;-52
2022/12/08 01:20:54;;;;;;;1.75;0.50;;;1.90;99.90;;;;;;5053377;28;20048;-50
2022/12/08 01:23:21;;;;;;;9.07;1.10;;;2.80;99.90;;;;;;5053052;28;20033;-50
2022/12/08 01:25:46;;;;;;;4.28;0.93;;;2.40;99.90;;;;;;5053103;28;20124;-52
2022/12/08 01:28:12;;;;;;;1.98;0.60;;;2.40;99.90;;;;;;5052668;28;20476;-50
2022/12/08 01:30:39;;;;;;;1.45;0.52;;;2.70;99.90;;;;;;5052901;28;20090;-50
2022/12/08 01:33:04;;;;;;;4.53;1.58;;;1.90;99.90;;;;;;5034860;28;20063;-50
2022/12/08 01:35:30;;;;;;;3.88;0.60;;;1.90;99.90;;;;;;5052925;28;20155;-50
2022/12/08 01:37:56;;;;;;;0.90;0.50;;;2.40;99.90;;;;;;5052672;28;20045;-50
2022/12/08 01:40:22;;;;;;;6.60;0.70;;;2.30;99.90;;;;;;5052988;28;20123;-51
2022/12/08 01:42:48;;;;;;;3.17;0.55;;;2.70;99.90;;;;;;5052630;28;20048;-51
2022/12/08 01:45:18;;;;;;;4.20;0.70;;;2.80;99.90;;;;;;5052562;28;20037;-52
2022/12/08 01:47:48;;;;;;;5.22;0.52;;;2.70;99.90;;;;;;5052346;28;20478;-50
2022/12/08 01:50:17;;;;;;;2.47;0.60;;;2.80;99.90;;;;;;5052768;28;20087;-52
2022/12/08 01:52:50;;;;;;;1.52;0.57;;;2.80;99.90;;;;;;5052742;28;20044;-51
2022/12/08 01:55:29;;;;;;;2.78;0.82;;;2.30;99.90;;;;;;5052501;28;20051;-51
2022/12/08 01:58:04;;;;;;;0.40;0.40;;;2.90;99.90;;;;;;5032215;28;20041;-50
2022/12/08 02:00:30;;;;;;;2.28;0.50;;;2.80;99.90;;;;;;5032750;28;20037;-52
2022/12/08 02:03:00;;;;;;;3.53;0.57;;;2.40;99.90;;;;;;5032649;28;20048;-50
2022/12/08 02:05:29;;;;;;;2.97;0.63;;;2.50;99.90;;;;;;5032587;28;20025;-51
2022/12/08 02:07:57;;;;;;;0.50;0.40;;;2.80;99.90;;;;;;5032182;28;20138;-55
2022/12/08 02:10:26;;;;;;;3.35;0.70;;;2.90;99.90;;;;;;5032412;28;20049;-51
2022/12/08 02:12:55;;;;;;;0.45;0.38;;;2.20;99.90;;;;;;5032074;28;20033;-52
2022/12/08 02:15:36;;;;;;;2.47;0.40;;;2.20;99.90;;;;;;5032520;28;20134;-54
2022/12/08 02:18:33;;;;;;;2.43;0.60;;;2.50;99.90;;;;;;5014593;28;20045;-52
2022/12/08 02:21:27;;;;;;;2.20;0.40;;;2.60;99.90;;;;;;5031282;28;20292;-51
2022/12/08 02:24:02;;;;;;;0.40;0.40;;;2.50;99.90;;;;;;5032211;28;20452;-53
2022/12/08 02:26:45;;;;;;;1.75;0.50;;;1.70;99.90;;;;;;5032398;28;20411;-51
2022/12/08 02:29:29;;;;;;;1.38;0.47;;;1.90;99.90;;;;;;5032258;28;20077;-54
2022/12/08 02:32:29;;;;;;;2.65;0.40;;;2.00;99.90;;;;;;5031726;28;20568;-53
2022/12/08 02:35:12;;;;;;;1.95;0.50;;;2.00;99.90;;;;;;5027198;28;20048;-51
2022/12/08 02:37:45;;;;;;;1.83;0.50;;;1.70;99.90;;;;;;5014258;28;20076;-53
2022/12/08 02:40:48;;;;;;;0.73;0.50;;;2.60;99.90;;;;;;5031809;28;20501;-50
2022/12/08 02:43:34;;;;;;;;;;;2.80;99.90;;;;;;4974336;28;20104;-51
2022/12/08 02:46:04;;;;;;;0.30;0.30;;;2.50;99.90;;;;;;5017557;28;20004;-50
2022/12/08 02:48:32;;;;;;;1.33;0.60;;;2.00;99.90;;;;;;5031832;28;20042;-51
2022/12/08 02:50:58;;;;;;;0.30;0.30;;;1.60;99.90;;;;;;5031853;28;20506;-51
2022/12/08 02:53:25;;;;;;;0.95;0.40;;;2.70;99.90;;;;;;5031776;28;20072;-50
2022/12/08 02:56:38;;;;;;;0.40;0.40;;;2.40;99.90;;;;;;5035943;28;20044;-50
2022/12/08 02:59:06;;;;;;;0.60;0.40;;;1.60;99.90;;;;;;5020692;28;20081;-51
2022/12/08 03:02:00;;;;;;;0.40;0.40;;;2.80;99.90;;;;;;5055820;28;20041;-50
2022/12/08 03:04:49;;;;;;;0.35;0.35;;;2.60;99.90;;;;;;5055901;28;20053;-51
2022/12/08 03:07:33;;;;;;;0.55;0.30;;;2.60;99.90;;;;;;5055852;28;20067;-53
2022/12/08 03:10:12;;;;;;;1.52;0.40;;;2.40;99.90;;;;;;5055747;28;20393;-51
2022/12/08 03:12:52;;;;;;;1.73;0.45;;;2.10;99.90;;;;;;5055251;28;20473;-50
2022/12/08 03:15:20;;;;;;;2.72;0.57;;;2.20;99.90;;;;;;5037724;28;20048;-50
2022/12/08 03:17:52;;;;;;;1.05;0.43;;;2.50;99.90;;;;;;5055579;28;21013;-53
2022/12/08 03:20:21;;;;;;;0.30;0.30;;;2.30;99.90;;;;;;5037598;28;20041;-50
2022/12/08 03:22:49;;;;;;;0.52;0.38;;;2.10;99.90;;;;;;5055408;28;20555;-54
2022/12/08 03:25:19;;;;;;;0.95;0.40;;;1.80;99.90;;;;;;5055436;28;20663;-51
2022/12/08 03:27:45;;;;;;;0.40;0.40;;;2.20;99.90;;;;;;5055546;28;20068;-52
2022/12/08 03:30:11;;;;;;;0.60;0.40;;;2.80;99.90;;;;;;5054987;28;20077;-52
2022/12/08 03:32:40;;;;;;;4.32;0.57;;;2.80;99.90;;;;;;5054790;28;20053;-55
2022/12/08 03:35:12;;;;;;;3.35;0.40;;;2.70;99.90;;;;;;5054922;28;20090;-53
2022/12/08 03:37:39;;;;;;;3.55;0.98;;;2.10;99.90;;;;;;5054893;28;20062;-52
2022/12/08 03:40:07;;;;;;;1.83;0.50;;;2.70;99.90;;;;;;5055208;28;20398;-54
2022/12/08 03:42:32;;;;;;;2.72;0.50;;;1.70;99.90;;;;;;5055044;28;20044;-52
2022/12/08 03:44:58;;;;;;;2.38;0.70;;;2.40;99.90;;;;;;5054743;28;20041;-50
2022/12/08 03:47:24;;;;;;;2.65;0.50;;;2.10;99.90;;;;;;5054790;28;20037;-50
2022/12/08 03:49:49;;;;;;;0.70;0.50;;;2.90;99.90;;;;;;5054736;28;20040;-50
2022/12/08 03:52:15;;;;;;;0.95;0.50;;;2.60;99.90;;;;;;5054790;28;20040;-52
2022/12/08 03:54:41;;;;;;;5.00;0.70;;;2.60;99.90;;;;;;5054591;28;20079;-52
2022/12/08 03:57:07;;;;;;;0.85;0.52;;;2.50;99.90;;;;;;5040029;28;20120;-50
2022/12/08 03:59:33;;;;;;;3.10;0.60;;;2.40;99.90;;;;;;5034771;28;20056;-53
2022/12/08 04:01:58;;;;;;;1.60;0.50;;;2.30;99.90;;;;;;5034585;28;20041;-52
2022/12/08 04:04:24;;;;;;;2.00;0.75;;;2.30;99.90;;;;;;5034326;28;20048;-49
2022/12/08 04:06:50;;;;;;;0.77;0.52;;;2.60;99.90;;;;;;5034442;28;20053;-52
2022/12/08 04:09:16;;;;;;;2.45;0.63;;;2.40;99.90;;;;;;5034513;28;20045;-52
2022/12/08 04:11:42;;;;;;;2.83;0.50;;;1.80;99.90;;;;;;5033204;28;20124;-57
2022/12/08 04:14:07;;;;;;;3.25;0.52;;;2.00;99.90;;;;;;5034471;28;20051;-50
2022/12/08 04:16:33;;;;;;;2.15;0.50;;;1.70;99.90;;;;;;5034116;28;20122;-50
2022/12/08 04:18:59;;;;;;;3.45;0.50;;;2.70;99.90;;;;;;5034133;28;20034;-50
2022/12/08 04:21:25;;;;;;;2.55;0.60;;;2.80;99.90;;;;;;5034341;28;20776;-50
2022/12/08 04:23:50;;;;;;;1.23;0.60;;;1.90;99.90;;;;;;5034582;28;20045;-51
2022/12/08 04:26:16;;;;;;;0.93;0.57;;;2.70;99.90;;;;;;5034280;28;20038;-52
2022/12/08 04:28:42;;;;;;;3.20;0.77;;;1.70;99.90;;;;;;5034187;28;20037;-50
2022/12/08 04:31:09;;;;;;;1.00;0.40;;;2.60;99.90;;;;;;5038891;28;20473;-50
2022/12/08 04:33:35;;;;;;;1.33;0.52;;;1.90;99.90;;;;;;5053547;28;20053;-51
2022/12/08 04:36:02;;;;;;;2.40;0.80;;;2.60;99.90;;;;;;5054004;28;20106;-51
2022/12/08 04:38:27;;;;;;;2.67;0.60;;;1.70;99.90;;;;;;5053871;28;20532;-50
2022/12/08 04:40:53;;;;;;;0.95;0.55;;;2.00;99.90;;;;;;5054280;28;20120;-54
2022/12/08 04:43:19;;;;;;;2.22;0.40;;;1.90;99.90;;;;;;5054210;28;20037;-50
2022/12/08 04:45:45;;;;;;;3.67;0.50;;;2.50;99.90;;;;;;5053736;28;20041;-50
2022/12/08 04:48:12;;;;;;;2.95;0.60;;;1.90;99.90;;;;;;5035830;28;20049;-52
2022/12/08 04:50:43;;;;;;;0.57;0.40;;;1.80;99.90;;;;;;5053732;28;20101;-51
2022/12/08 04:53:10;;;;;;;3.67;0.50;;;1.90;99.90;;;;;;5053758;28;20048;-52
2022/12/08 04:55:44;;;;;;;0.63;0.40;;;2.60;99.90;;;;;;5051374;28;20198;-52
2022/12/08 04:58:14;;;;;;;0.57;0.50;;;2.10;99.90;;;;;;5033606;28;20037;-50
2022/12/08 05:00:40;;;;;;;0.40;0.40;;;2.70;99.90;;;;;;5033549;28;20037;-50
2022/12/08 05:03:06;;;;;;;5.20;0.90;;;2.00;99.90;;;;;;5033548;28;20049;-50
2022/12/08 05:05:32;;;;;;;1.60;0.82;;;1.80;99.90;;;;;;5033503;28;20116;-50
2022/12/08 05:07:58;;;;;;;2.45;0.57;;;2.80;99.90;;;;;;5033710;28;20037;-50
2022/12/08 05:10:23;;;;;;;0.73;0.50;;;2.70;99.90;;;;;;5033459;28;20045;-51
2022/12/08 05:12:49;;;;;;;1.45;0.63;;;2.80;99.90;;;;;;5033239;28;20042;-50
2022/12/08 05:15:15;;;;;;;3.47;0.60;;;1.90;99.90;;;;;;5015571;28;20095;-50
2022/12/08 05:17:40;;;;;;;1.50;0.47;;;2.10;99.90;;;;;;5033059;28;20037;-50
2022/12/08 05:20:07;;;;;;;1.05;0.57;;;2.80;99.90;;;;;;5033419;28;20034;-52
2022/12/08 05:22:32;;;;;;;2.42;0.55;;;2.60;99.90;;;;;;5032647;28;20128;-51
2022/12/08 05:24:58;;;;;;;3.80;0.52;;;2.60;99.90;;;;;;5033142;28;20124;-54
2022/12/08 05:27:24;;;;;;;3.67;0.65;;;1.60;99.90;;;;;;5015453;28;20045;-52
2022/12/08 05:29:49;;;;;;;2.15;0.70;;;2.60;99.90;;;;;;5033254;28;20432;-51
2022/12/08 05:32:15;;;;;;;1.80;0.52;;;1.80;99.90;;;;;;5033025;28;20088;-52
2022/12/08 05:34:41;;;;;;;1.85;0.68;;;1.60;99.90;;;;;;5033175;28;20041;-53
2022/12/08 05:37:07;;;;;;;1.85;0.50;;;2.00;99.90;;;;;;5032787;28;20456;-52
2022/12/08 05:39:32;;;;;;;2.03;0.60;;;1.70;99.90;;;;;;5032904;28;20044;-52
2022/12/08 05:41:58;;;;;;;2.00;0.60;;;1.70;99.90;;;;;;5033031;28;20030;-54
2022/12/08 05:44:24;;;;;;;2.22;0.70;;;1.60;99.90;;;;;;5032747;28;20104;-50
2022/12/08 05:46:50;;;;;;;3.60;0.52;;;2.60;99.90;;;;;;5032874;28;20117;-53
2022/12/08 05:49:16;;;;;;;2.72;0.50;;;1.70;99.90;;;;;;5032689;28;20124;-51
2022/12/08 05:51:42;;;;;;;4.10;0.50;;;2.20;99.90;;;;;;5032589;28;20446;-50
2022/12/08 05:54:08;;;;;;;0.70;0.50;;;2.40;99.90;;;;;;5032454;28;20121;-51
2022/12/08 05:56:33;;;;;;;3.85;0.77;;;1.50;99.90;;;;;;5042406;28;20095;-50
2022/12/08 05:58:59;;;;;;;1.33;0.50;;;1.90;99.90;;;;;;5052566;28;20068;-50
2022/12/08 06:01:29;;;;;;;1.42;0.65;;;1.60;99.90;;;;;;5052293;28;20135;-50
2022/12/08 06:03:56;;;;;;;4.43;0.98;;;2.60;99.90;;;;;;5052617;28;20084;-51
2022/12/08 06:06:22;;;;;;;3.00;0.70;;;1.80;99.90;;;;;;5052511;28;20037;-49
2022/12/08 06:08:47;;;;;;;1.88;0.70;;;1.70;99.90;;;;;;5052345;28;20047;-50
2022/12/08 06:11:23;;;;;;;4.70;1.60;;;2.40;99.90;;;;;;5052295;28;20047;-50
2022/12/08 06:13:49;;;;;;;4.00;0.70;;;2.40;99.90;;;;;;5034290;28;20037;-50
2022/12/08 06:16:16;;;;;;;0.95;0.70;;;2.00;99.90;;;;;;5052211;28;20070;-51
2022/12/08 06:18:42;;;;;;;1.55;0.60;;;2.30;99.90;;;;;;5052384;28;20083;-52
2022/12/08 06:21:10;;;;;;;1.85;0.70;;;2.00;99.90;;;;;;5052165;28;20045;-50
2022/12/08 06:23:37;;;;;;;1.60;0.60;;;1.70;99.90;;;;;;5034217;28;20357;-52
2022/12/08 06:26:11;;;;;;;3.03;0.73;;;2.20;99.90;;;;;;5052036;28;20041;-50
2022/12/08 06:28:39;;;;;;;1.63;0.70;;;1.60;99.90;;;;;;5051911;28;20056;-51
2022/12/08 06:31:10;;;;;;;2.40;0.98;;;1.40;99.90;;;;;;5052232;28;20044;-53
2022/12/08 06:33:36;;;;;;;2.43;0.70;;;1.10;99.90;;;;;;5051366;28;20215;-51
2022/12/08 06:36:03;;;;;;;1.67;0.70;;;1.80;99.90;;;;;;5051626;28;20080;-52
2022/12/08 06:38:29;;;;;;;2.75;1.00;;;1.20;99.90;;;;;;5051598;28;20052;-53
2022/12/08 06:40:56;;;;;;;3.05;1.08;;;1.30;99.90;;;;;;5051839;28;20134;-50
2022/12/08 06:43:22;;;;;;;1.80;0.90;;;1.30;99.90;;;;;;5051668;28;20048;-50
2022/12/08 06:45:48;;;;;;;3.75;1.08;;;1.50;99.90;;;;;;5051669;28;20037;-50
2022/12/08 06:48:13;;;;;;;5.30;1.33;;;1.40;99.90;;;;;;5051645;28;20047;-51
2022/12/08 06:50:39;;;;;;;3.40;1.08;;;1.20;99.90;;;;;;5052074;28;20044;-53
2022/12/08 06:53:05;;;;;;;4.47;1.20;;;1.20;99.90;;;;;;5051842;28;20045;-49
2022/12/08 06:55:30;;;;;;;1.33;0.68;;;1.70;99.90;;;;;;5033913;28;20056;-51
2022/12/08 06:57:56;;;;;;;3.20;1.08;;;1.80;99.90;;;;;;5051553;28;20040;-53
2022/12/08 07:00:22;;;;;;;3.05;1.13;;;2.10;99.90;;;;;;5051985;28;20051;-52
2022/12/08 07:02:48;;;;;;;4.35;1.15;;;1.10;99.90;;;;;;5051667;28;20043;-54
2022/12/08 07:05:13;;;;;;;4.35;1.20;;;2.00;99.90;;;;;;5051905;28;20037;-52
2022/12/08 07:07:40;;;;;;;5.82;1.10;;;1.10;99.90;;;;;;5051517;28;20098;-53
2022/12/08 07:10:06;;;;;;;3.65;1.50;;;1.40;99.90;;;;;;5051591;28;20041;-53
2022/12/08 07:12:32;;;;;;;5.03;1.30;;;2.00;99.90;;;;;;5051611;28;20045;-53
2022/12/08 07:14:57;;;;;;;7.70;2.05;;;1.00;99.90;;;;;;5051825;28;20044;-50
2022/12/08 07:17:23;;;;;;;28.52;3.00;;;1.10;99.90;;;;;;5051681;28;20080;-51
2022/12/08 07:19:49;;;;;;;3.33;1.45;;;1.20;99.90;;;;;;5051738;28;20370;-51
2022/12/08 07:22:15;;;;;;;3.88;1.40;;;1.90;99.90;;;;;;5033581;28;20044;-55
2022/12/08 07:24:40;;;;;;;5.72;1.55;;;1.40;99.90;;;;;;5051616;28;20601;-54
2022/12/08 07:27:06;;;;;;;4.32;1.48;;;1.00;99.90;;;;;;5051560;28;20048;-52
2022/12/08 07:29:32;;;;;;;5.60;2.03;;;1.80;99.90;;;;;;5051513;28;20041;-51
2022/12/08 07:31:57;;;;;;;7.38;1.92;;;1.80;99.90;;;;;;5050945;28;20056;-51
2022/12/08 07:34:23;;;;;;;6.97;2.10;;;1.20;99.90;;;;;;5050857;28;20045;-50
2022/12/08 07:36:49;;;;;;;7.75;1.50;;;0.90;99.90;;;;;;5050791;28;20048;-50
2022/12/08 07:39:15;;;;;;;5.88;1.52;;;0.90;99.90;;;;;;5050595;28;20076;-51
2022/12/08 07:41:40;;;;;;;6.18;1.70;;;1.50;99.90;;;;;;5050752;28;20045;-51
2022/12/08 07:44:06;;;;;;;6.63;2.08;;;1.40;99.90;;;;;;5050709;28;20151;-52
2022/12/08 07:46:31;;;;;;;7.90;1.70;;;0.80;99.90;;;;;;5034902;28;20037;-52
2022/12/08 07:48:57;;;;;;;5.55;1.90;;;1.30;99.90;;;;;;5036263;28;20045;-55
2022/12/08 07:51:24;;;;;;;4.35;1.60;;;1.60;99.90;;;;;;5036155;28;20049;-51
2022/12/08 07:53:50;;;;;;;4.80;1.80;;;1.00;99.90;;;;;;5054140;28;20087;-49
2022/12/08 07:56:16;;;;;;;5.40;1.90;;;1.40;99.90;;;;;;5046427;28;20037;-52
2022/12/08 07:58:44;;;;;;;4.80;1.60;;;0.90;99.90;;;;;;5041999;28;20397;-50
2022/12/08 08:01:20;;;;;;;7.65;1.70;;;1.30;99.90;;;;;;5022180;28;20033;-50
2022/12/08 08:03:46;;;;;;;9.23;2.28;;;1.70;99.90;;;;;;5033921;28;20041;-50
2022/12/08 08:06:12;;;;;;;6.13;2.28;;;1.10;99.90;;;;;;5033805;28;20569;-51
2022/12/08 08:08:37;;;;;;;5.93;1.80;;;1.20;99.90;;;;;;5033894;28;20049;-52
2022/12/08 08:11:06;;;;;;;5.43;1.48;;;0.90;99.90;;;;;;5033777;28;20049;-52
2022/12/08 08:13:32;;;;;;;4.63;1.27;;;1.60;99.90;;;;;;5049357;28;20049;-51
2022/12/08 08:16:06;;;;;;;5.55;1.50;;;1.50;99.90;;;;;;5053815;28;20056;-52
2022/12/08 08:18:32;;;;;;;9.02;1.95;;;1.10;99.90;;;;;;5053382;28;20043;-54
2022/12/08 08:20:58;;;;;;;7.93;2.22;;;1.50;99.90;;;;;;5053403;28;20452;-54
2022/12/08 08:23:24;;;;;;;8.15;2.00;;;1.80;99.90;;;;;;5035460;28;20072;-52
2022/12/08 08:25:49;;;;;;;11.43;1.95;;;1.80;99.90;;;;;;5053717;28;20116;-51
2022/12/08 08:28:15;;;;;;;6.35;1.77;;;2.00;99.90;;;;;;5053595;28;20062;-51
2022/12/08 08:30:41;;;;;;;6.60;1.40;;;1.30;99.90;;;;;;5053501;28;20080;-53
2022/12/08 08:33:06;;;;;;;4.65;1.38;;;1.40;99.90;;;;;;5053238;28;20049;-52
2022/12/08 08:35:33;;;;;;;6.07;1.38;;;1.20;99.90;;;;;;5053410;28;20044;-52
2022/12/08 08:37:59;;;;;;;5.07;1.10;;;1.20;99.90;;;;;;5053268;28;20140;-51
2022/12/08 08:40:25;;;;;;;5.40;1.42;;;1.50;99.90;;;;;;5053252;28;20053;-53
2022/12/08 08:42:51;;;;;;;5.00;1.20;;;1.40;99.90;;;;;;5053204;28;20132;-51
2022/12/08 08:45:16;;;;;;;3.00;0.95;;;2.10;99.90;;;;;;5052654;28;20442;-50
2022/12/08 08:47:42;;;;;;;5.20;1.20;;;1.70;99.90;;;;;;5052733;28;20041;-52
2022/12/08 08:50:08;;;;;;;6.43;1.38;;;1.70;99.90;;;;;;5052469;28;20102;-53
2022/12/08 08:52:34;;;;;;;6.95;1.75;;;1.60;99.90;;;;;;5053127;28;20428;-53
2022/12/08 08:55:00;;;;;;;4.05;1.50;;;2.20;99.90;;;;;;5052441;28;20128;-51
2022/12/08 08:57:25;;;;;;;6.93;2.03;;;2.20;99.90;;;;;;5034505;28;20050;-53
2022/12/08 08:59:51;;;;;;;7.25;2.15;;;2.20;99.90;;;;;;5032554;28;20044;-51
2022/12/08 09:02:18;;;;;;;8.10;2.00;;;2.30;99.90;;;;;;5032044;28;20123;-51
2022/12/08 09:04:44;;;;;;;6.97;2.28;;;2.20;99.90;;;;;;5014323;28;20136;-51
2022/12/08 09:07:11;;;;;;;7.53;2.83;;;1.90;99.90;;;;;;5014652;28;20057;-50
2022/12/08 09:09:37;;;;;;;5.07;1.80;;;2.60;99.90;;;;;;5014952;28;20045;-51
2022/12/08 09:12:03;;;;;;;6.85;1.75;;;2.20;99.90;;;;;;5032291;28;20052;-50
2022/12/08 09:14:29;;;;;;;5.78;2.00;;;2.20;99.90;;;;;;5032698;28;20052;-50
2022/12/08 09:16:54;;;;;;;6.85;2.00;;;1.90;99.90;;;;;;5014834;28;20037;-52
2022/12/08 09:19:20;;;;;;;5.28;1.83;;;2.10;99.90;;;;;;5032641;28;20037;-50
2022/12/08 09:21:46;;;;;;;8.05;1.92;;;1.80;99.90;;;;;;5032394;28;20498;-50
2022/12/08 09:24:14;;;;;;;6.90;2.10;;;2.00;99.90;;;;;;5014730;28;20045;-51
2022/12/08 09:26:41;;;;;;;8.02;1.98;;;2.10;99.90;;;;;;5032581;28;20049;-51
2022/12/08 09:29:07;;;;;;;6.07;2.03;;;1.80;99.90;;;;;;5031639;28;20046;-51
2022/12/08 09:31:33;;;;;;;8.23;1.60;;;1.90;99.90;;;;;;5032211;28;20420;-52
2022/12/08 09:33:59;;;;;;;6.60;1.83;;;2.10;99.90;;;;;;5032341;28;20049;-50
2022/12/08 09:36:25;;;;;;;5.47;1.63;;;2.30;99.90;;;;;;5031794;28;20093;-52
2022/12/08 09:38:53;;;;;;;8.32;1.88;;;2.20;99.90;;;;;;5031729;28;20038;-54
2022/12/08 09:41:29;;;;;;;5.95;1.30;;;2.10;99.90;;;;;;5031760;28;20060;-53
2022/12/08 09:44:32;;;;;;;6.57;1.50;;;2.10;99.90;;;;;;5031962;28;20742;-52
2022/12/08 09:47:00;;;;;;;6.63;1.20;;;2.10;99.90;;;;;;5014383;28;20539;-53
2022/12/08 09:49:40;;;;;;;5.80;1.65;;;2.60;99.90;;;;;;5032095;28;20049;-50
2022/12/08 09:52:20;;;;;;;7.10;1.52;;;2.50;99.90;;;;;;5031865;28;20049;-50
2022/12/08 09:54:45;;;;;;;3.10;1.13;;;2.30;99.90;;;;;;5038426;28;20144;-50
2022/12/08 09:57:18;;;;;;;5.10;1.15;;;2.50;99.90;;;;;;5018997;28;20091;-52
2022/12/08 09:59:50;;;;;;;4.05;1.30;;;2.60;99.90;;;;;;5031544;28;20038;-51
2022/12/08 10:02:24;;;;;;;5.55;1.30;;;2.30;99.90;;;;;;5031823;28;20096;-51
2022/12/08 10:04:50;;;;;;;2.65;1.05;;;2.70;99.90;;;;;;5031640;28;20108;-52
2022/12/08 10:07:40;;;;;;;5.47;1.20;;;2.60;99.90;;;;;;5032013;28;20145;-53
2022/12/08 10:10:12;;;;;;;6.32;1.27;;;2.40;99.90;;;;;;5030845;28;20124;-51
2022/12/08 10:12:48;;;;;;;7.13;1.73;;;2.30;99.90;;;;;;5031531;28;20052;-50
2022/12/08 10:15:32;;;;;;;5.22;1.80;;;2.80;99.90;;;;;;5031514;28;20435;-53
2022/12/08 10:18:02;;;;;;;8.07;1.77;;;2.50;99.90;;;;;;5031494;28;20528;-51
2022/12/08 10:20:36;;;;;;;7.20;2.20;;;2.80;99.90;;;;;;5032011;28;20117;-53
2022/12/08 10:23:15;;;;;;;5.03;1.58;;;2.50;99.90;;;;;;5031891;28;20040;-50
2022/12/08 10:25:59;;;;;;;4.82;1.27;;;3.00;99.90;;;;;;5032405;28;20045;-51
2022/12/08 10:28:25;;;;;;;7.15;1.65;;;2.60;99.90;;;;;;5014209;28;20541;-54
2022/12/08 10:30:51;;;;;;;4.45;1.00;;;3.00;99.90;;;;;;5032025;28;20120;-54
2022/12/08 10:33:19;;;;;;;4.43;1.10;;;3.10;99.90;;;;;;5039843;28;20049;-54
2022/12/08 10:35:47;;;;;;;4.75;0.88;;;3.20;99.90;;;;;;5031980;28;20046;-52
2022/12/08 10:38:21;;;;;;;4.38;1.02;;;3.00;99.90;;;;;;5032223;28;20058;-50
2022/12/08 10:40:50;;;;;;;2.53;0.88;;;3.10;99.90;;;;;;5014382;28;20045;-52
2022/12/08 10:43:22;;;;;;;3.55;0.90;;;3.10;99.90;;;;;;5032414;28;20387;-51
2022/12/08 10:45:49;;;;;;;3.55;0.70;;;2.90;99.90;;;;;;5014343;28;20038;-51
2022/12/08 10:48:25;;;;;;;2.88;0.80;;;3.00;99.90;;;;;;5032010;28;20042;-50
2022/12/08 10:50:51;;;;;;;3.53;1.00;;;3.30;99.90;;;;;;5032181;28;20478;-51
2022/12/08 10:53:31;;;;;;;5.22;1.10;;;3.40;99.90;;;;;;5014190;28;20096;-50
2022/12/08 10:55:57;;;;;;;3.20;0.70;;;3.40;99.90;;;;;;5036944;28;20039;-50
2022/12/08 10:58:41;;;;;;;5.90;0.80;;;3.50;99.90;;;;;;5052147;28;20458;-52
2022/12/08 11:01:14;;;;;;;3.95;0.80;;;3.60;99.90;;;;;;5052010;28;20047;-53
2022/12/08 11:03:56;;;;;;;3.72;0.75;;;3.80;99.90;;;;;;5051794;28;20520;-52
2022/12/08 11:06:32;;;;;;;4.28;0.80;;;3.70;99.90;;;;;;5051730;28;20047;-51
2022/12/08 11:09:19;;;;;;;1.38;0.60;;;3.80;99.90;;;;;;5051829;28;20041;-53
2022/12/08 11:12:14;;;;;;;4.22;0.95;;;4.00;99.90;;;;;;5051756;28;20037;-50
2022/12/08 11:14:42;;;;;;;3.17;0.70;;;4.30;99.90;;;;;;5051812;28;20059;-51
2022/12/08 11:17:21;;;;;;;2.75;0.63;;;4.20;99.90;;;;;;5051481;28;20505;-52
2022/12/08 11:20:02;;;;;;;2.90;0.70;;;3.90;99.90;;;;;;5033997;28;20331;-52
2022/12/08 11:22:35;;;;;;;3.55;0.60;;;3.70;99.90;;;;;;5055611;28;20055;-51
2022/12/08 11:25:07;;;;;;;2.90;0.60;;;3.50;99.90;;;;;;5055353;28;20094;-51
2022/12/08 11:27:35;;;;;;;2.33;0.50;;;3.30;99.90;;;;;;5055346;28;20045;-51
2022/12/08 11:30:05;;;;;;;1.75;0.50;;;3.10;99.90;;;;;;5055369;28;20119;-51
2022/12/08 11:32:31;;;;;;;3.78;0.50;;;3.00;99.90;;;;;;5054963;28;20052;-54
2022/12/08 11:35:04;;;;;;;5.93;1.05;;;2.70;99.90;;;;;;5055495;28;20041;-54
2022/12/08 11:37:38;;;;;;;2.33;0.60;;;2.90;99.90;;;;;;5055198;28;20505;-54
2022/12/08 11:40:13;;;;;;;0.73;0.40;;;2.80;99.90;;;;;;5055433;28;20385;-52
2022/12/08 11:43:04;;;;;;;0.75;0.60;;;2.80;99.90;;;;;;5055079;28;20037;-51
2022/12/08 11:45:33;;;;;;;2.80;0.60;;;2.90;99.90;;;;;;5055354;28;20363;-51
2022/12/08 11:48:05;;;;;;;1.30;0.43;;;2.90;99.90;;;;;;5055034;28;20044;-50
2022/12/08 11:50:42;;;;;;;2.13;0.63;;;3.00;99.90;;;;;;5055314;28;20049;-50
2022/12/08 11:53:29;;;;;;;3.45;0.60;;;3.20;99.90;;;;;;5054948;28;20037;-50
2022/12/08 11:55:59;;;;;;;2.08;0.50;;;2.90;99.90;;;;;;5050134;28;20064;-51
2022/12/08 11:58:48;;;;;;;0.50;0.43;;;3.40;99.90;;;;;;5017110;28;20478;-52
2022/12/08 12:01:22;;;;;;;2.22;0.52;;;3.40;99.90;;;;;;5017323;28;20140;-51
2022/12/08 12:04:14;;;;;;;1.75;0.40;;;3.30;99.90;;;;;;5034786;28;20037;-52
2022/12/08 12:06:59;;;;;;;1.55;0.50;;;3.10;99.90;;;;;;5034922;28;20040;-51
2022/12/08 12:09:35;;;;;;;2.13;0.52;;;3.30;99.90;;;;;;5034639;28;20486;-50
2022/12/08 12:12:43;;;;;;;2.22;0.47;;;3.20;99.90;;;;;;5034727;28;20041;-52
2022/12/08 12:15:26;;;;;;;2.92;0.68;;;3.40;99.90;;;;;;4954843;28;20129;-50
2022/12/08 12:17:52;;;;;;;2.22;0.47;;;3.70;99.90;;;;;;5034458;28;20076;-51
2022/12/08 12:20:36;;;;;;;1.88;0.63;;;3.80;99.90;;;;;;5034865;28;20076;-54
2022/12/08 12:23:19;;;;;;;2.05;0.60;;;3.80;99.90;;;;;;5034283;28;20051;-51
2022/12/08 12:25:57;;;;;;;2.03;0.52;;;3.90;99.90;;;;;;5034708;28;20418;-52
2022/12/08 12:28:26;;;;;;;3.60;0.43;;;3.90;99.90;;;;;;5034593;28;20120;-50
2022/12/08 12:31:04;;;;;;;3.92;0.50;;;3.90;99.90;;;;;;5034260;28;20734;-53
2022/12/08 12:33:30;;;;;;;1.05;0.50;;;4.10;99.90;;;;;;5033215;28;20089;-55
2022/12/08 12:36:00;;;;;;;1.77;0.50;;;4.10;99.90;;;;;;5034025;28;20532;-51
2022/12/08 12:39:06;;;;;;;2.22;0.55;;;4.10;99.90;;;;;;5034031;28;20049;-54
2022/12/08 12:41:49;;;;;;;0.65;0.40;;;4.10;99.90;;;;;;5034273;28;20068;-55
2022/12/08 12:44:18;;;;;;;1.45;0.50;;;4.20;99.90;;;;;;5034320;28;20127;-53
2022/12/08 12:46:49;;;;;;;4.72;0.60;;;4.20;99.90;;;;;;5034108;28;20042;-53
2022/12/08 12:49:39;;;;;;;2.63;0.60;;;4.20;99.90;;;;;;5033870;28;20029;-55
2022/12/08 12:52:14;;;;;;;1.95;0.60;;;4.30;99.90;;;;;;5033669;28;20490;-52
2022/12/08 12:55:03;;;;;;;3.40;0.90;;;4.30;99.90;;;;;;5033804;28;20068;-54
2022/12/08 12:57:38;;;;;;;4.38;0.70;;;4.20;99.90;;;;;;5051037;28;20045;-52
2022/12/08 13:00:03;;;;;;;2.10;0.70;;;4.10;99.90;;;;;;5053839;28;20170;-52
2022/12/08 13:02:35;;;;;;;2.45;0.68;;;4.10;99.90;;;;;;5053780;28;20525;-52
2022/12/08 13:05:22;;;;;;;2.88;0.80;;;4.00;99.90;;;;;;5053595;28;20086;-52
2022/12/08 13:08:18;;;;;;;2.33;0.50;;;4.00;99.90;;;;;;5053561;28;20045;-51
2022/12/08 13:11:05;;;;;;;2.78;0.57;;;3.70;99.90;;;;;;5053378;28;20485;-55
2022/12/08 13:13:32;;;;;;;4.50;0.70;;;3.60;99.90;;;;;;5053367;28;20087;-51
2022/12/08 13:16:07;;;;;;;2.10;0.52;;;3.70;99.90;;;;;;5053393;28;20428;-51
2022/12/08 13:18:36;;;;;;;0.60;0.32;;;3.70;99.90;;;;;;5053433;28;20124;-52
2022/12/08 13:21:08;;;;;;;1.17;0.60;;;3.60;99.90;;;;;;5053197;28;20120;-50